createdAt,value
2023-03-10T00:02:09.869Z,31.80
2023-03-10T00:04:40.949Z,31.80
2023-03-10T00:07:13.895Z,31.90
2023-03-10T00:09:46.073Z,31.80
2023-03-10T00:12:16.717Z,31.80
2023-03-10T00:14:47.434Z,31.80
2023-03-10T00:17:19.491Z,31.80
2023-03-10T00:19:53.355Z,31.80
2023-03-10T00:22:25.737Z,31.80
2023-03-10T00:24:58.877Z,31.80
2023-03-10T00:27:31.610Z,31.80
2023-03-10T00:30:03.301Z,31.80
2023-03-10T00:32:37.981Z,31.70
2023-03-10T00:35:09.716Z,31.70
2023-03-10T00:37:42.069Z,31.80
2023-03-10T00:40:15.462Z,31.70
2023-03-10T00:42:52.844Z,31.70
2023-03-10T00:45:24.097Z,31.70
2023-03-10T00:48:00.045Z,31.70
2023-03-10T00:50:31.999Z,31.60
2023-03-10T00:53:03.295Z,31.60
2023-03-10T00:55:36.743Z,31.60
2023-03-10T00:58:07.377Z,31.70
2023-03-10T01:00:38.624Z,31.60
2023-03-10T01:03:15.953Z,31.60
2023-03-10T01:05:48.183Z,31.60
2023-03-10T01:08:21.681Z,31.60
2023-03-10T01:10:55.486Z,31.60
2023-03-10T01:13:26.364Z,31.60
2023-03-10T01:15:56.687Z,31.60
2023-03-10T01:18:29.659Z,31.60
2023-03-10T01:21:00.716Z,31.60
2023-03-10T01:23:33.450Z,31.60
2023-03-10T01:26:06.021Z,31.60
2023-03-10T01:28:41.119Z,31.60
2023-03-10T01:31:14.345Z,31.60
2023-03-10T01:33:47.779Z,32.20
2023-03-10T01:36:23.951Z,31.60
2023-03-10T01:38:56.017Z,31.60
2023-03-10T01:41:27.319Z,31.60
2023-03-10T01:43:59.207Z,31.60
2023-03-10T01:46:51.273Z,31.60
2023-03-10T01:49:47.559Z,31.50
2023-03-10T01:52:25.780Z,31.50
2023-03-10T01:55:00.950Z,31.50
2023-03-10T01:57:38.382Z,31.60
2023-03-10T02:00:14.530Z,31.50
2023-03-10T02:02:53.060Z,31.50
2023-03-10T02:05:29.425Z,31.50
2023-03-10T02:08:02.833Z,31.50
2023-03-10T02:10:34.562Z,31.50
2023-03-10T02:13:10.177Z,31.40
2023-03-10T02:15:44.235Z,31.50
2023-03-10T02:18:20.502Z,31.50
2023-03-10T02:21:11.815Z,31.50
2023-03-10T02:24:00.328Z,31.40
2023-03-10T02:26:44.469Z,31.50
2023-03-10T02:29:24.828Z,31.50
2023-03-10T02:31:59.218Z,31.50
2023-03-10T02:34:32.970Z,31.50
2023-03-10T02:37:04.025Z,31.50
2023-03-10T02:39:37.217Z,31.50
2023-03-10T02:42:08.176Z,31.50
2023-03-10T02:44:43.906Z,31.50
2023-03-10T02:47:15.387Z,31.40
2023-03-10T02:49:48.649Z,31.60
2023-03-10T02:52:30.748Z,31.40
2023-03-10T02:55:02.460Z,31.40
2023-03-10T02:57:34.005Z,31.40
2023-03-10T03:00:10.019Z,31.40
2023-03-10T03:02:43.860Z,31.30
2023-03-10T03:05:19.530Z,31.30
2023-03-10T03:07:52.388Z,31.30
2023-03-10T03:10:24.796Z,31.40
2023-03-10T03:12:58.425Z,31.30
2023-03-10T03:15:35.738Z,31.40
2023-03-10T03:18:07.608Z,31.40
2023-03-10T03:20:41.580Z,31.40
2023-03-10T03:23:12.757Z,31.40
2023-03-10T03:25:48.777Z,31.30
2023-03-10T03:28:20.931Z,31.30
2023-03-10T03:30:57.233Z,31.30
2023-03-10T03:33:28.345Z,31.40
2023-03-10T03:36:00.871Z,31.30
2023-03-10T03:38:33.232Z,31.30
2023-03-10T03:41:05.227Z,31.30
2023-03-10T03:43:36.398Z,31.40
2023-03-10T03:46:09.702Z,32.00
2023-03-10T03:48:40.424Z,31.40
2023-03-10T03:51:14.400Z,31.30
2023-03-10T03:53:44.288Z,31.30
2023-03-10T03:56:14.770Z,31.20
2023-03-10T03:58:45.821Z,31.20
2023-03-10T04:01:19.103Z,31.20
2023-03-10T04:03:52.772Z,31.10
2023-03-10T04:06:26.012Z,31.10
2023-03-10T04:09:01.408Z,31.00
2023-03-10T04:11:33.103Z,31.00
2023-03-10T04:14:04.764Z,31.20
2023-03-10T04:16:38.538Z,31.20
2023-03-10T04:19:12.890Z,31.60
2023-03-10T04:21:45.719Z,31.60
2023-03-10T04:24:17.419Z,31.50
2023-03-10T04:26:49.480Z,31.60
2023-03-10T04:29:21.239Z,31.70
2023-03-10T04:32:05.140Z,31.70
2023-03-10T04:34:38.783Z,31.80
2023-03-10T04:37:12.142Z,32.10
2023-03-10T04:39:43.993Z,32.00
2023-03-10T04:42:16.512Z,32.10
2023-03-10T04:44:48.168Z,32.20
2023-03-10T04:47:21.342Z,32.30
2023-03-10T04:49:52.297Z,32.30
2023-03-10T04:52:23.438Z,32.40
2023-03-10T04:54:58.473Z,32.50
2023-03-10T04:57:30.277Z,32.50
2023-03-10T05:00:06.107Z,32.60
2023-03-10T05:02:39.479Z,32.60
2023-03-10T05:05:11.018Z,32.70
2023-03-10T05:07:43.249Z,32.70
2023-03-10T05:10:13.625Z,32.70
2023-03-10T05:12:44.415Z,32.90
2023-03-10T05:15:14.899Z,32.90
2023-03-10T05:17:49.958Z,33.00
2023-03-10T05:20:22.540Z,33.00
2023-03-10T05:22:54.666Z,33.10
2023-03-10T05:25:26.050Z,33.10
2023-03-10T05:27:57.809Z,33.10
2023-03-10T05:30:29.938Z,33.20
2023-03-10T05:33:01.821Z,33.50
2023-03-10T05:35:33.474Z,33.30
2023-03-10T05:38:04.518Z,33.40
2023-03-10T05:40:35.159Z,33.60
2023-03-10T05:43:06.980Z,33.30
2023-03-10T05:45:38.942Z,33.40
2023-03-10T05:48:16.537Z,33.50
2023-03-10T05:50:46.139Z,33.50
2023-03-10T05:53:17.364Z,33.50
2023-03-10T05:55:51.810Z,33.70
2023-03-10T05:58:23.070Z,33.70
2023-03-10T06:00:56.763Z,33.80
2023-03-10T06:03:30.872Z,33.80
2023-03-10T06:06:02.883Z,33.80
2023-03-10T06:08:34.942Z,33.80
2023-03-10T06:11:05.466Z,33.90
2023-03-10T06:13:35.357Z,33.80
2023-03-10T06:16:08.063Z,33.90
2023-03-10T06:18:41.643Z,34.00
2023-03-10T06:21:15.728Z,34.00
2023-03-10T06:23:45.330Z,34.00
2023-03-10T06:26:16.726Z,34.00
2023-03-10T06:28:47.828Z,34.00
2023-03-10T06:31:18.785Z,34.00
2023-03-10T06:33:49.907Z,34.00
2023-03-10T06:41:18.155Z,34.10
2023-03-10T06:53:32.643Z,34.30
2023-03-10T06:56:05.720Z,34.40
2023-03-10T06:58:39.162Z,34.40
2023-03-10T07:01:09.155Z,34.40
2023-03-10T07:03:43.766Z,34.40
2023-03-10T07:06:13.156Z,34.40
2023-03-10T07:08:43.603Z,34.40
2023-03-10T07:11:15.673Z,34.50
2023-03-10T07:13:45.350Z,34.70
2023-03-10T07:16:16.693Z,34.50
2023-03-10T07:18:46.837Z,34.60
2023-03-10T07:21:21.258Z,34.60
2023-03-10T07:23:51.376Z,34.60
2023-03-10T07:26:23.258Z,34.50
2023-03-10T07:28:52.764Z,34.70
2023-03-10T07:31:21.949Z,34.70
2023-03-10T07:33:51.774Z,34.80
2023-03-10T07:36:24.143Z,34.80
2023-03-10T07:38:53.925Z,34.70
2023-03-10T07:41:25.243Z,34.80
2023-03-10T07:43:54.853Z,35.00
2023-03-10T07:46:24.338Z,35.10
2023-03-10T07:48:54.188Z,34.90
2023-03-10T07:51:26.414Z,34.80
2023-03-10T07:53:58.004Z,34.80
2023-03-10T07:56:33.038Z,35.00
2023-03-10T07:59:02.656Z,35.00
2023-03-10T08:01:32.342Z,35.10
2023-03-10T08:04:04.650Z,35.10
2023-03-10T08:06:38.977Z,35.20
2023-03-10T08:09:11.231Z,35.10
2023-03-10T08:11:43.097Z,35.10
2023-03-10T08:14:12.699Z,35.10
2023-03-10T08:16:45.026Z,35.20
2023-03-10T08:19:16.290Z,35.00
2023-03-10T08:21:46.341Z,35.20
2023-03-10T08:24:20.148Z,35.20
2023-03-10T08:26:53.718Z,35.10
2023-03-10T08:29:27.504Z,35.00
2023-03-10T08:31:58.523Z,35.10
2023-03-10T08:34:28.754Z,35.10
2023-03-10T08:37:01.338Z,35.20
2023-03-10T08:39:31.794Z,35.10
2023-03-10T08:42:03.645Z,35.20
2023-03-10T08:44:36.033Z,35.10
2023-03-10T08:47:05.310Z,35.10
2023-03-10T08:49:34.925Z,35.10
2023-03-10T08:52:04.791Z,35.10
2023-03-10T08:54:34.746Z,35.10
2023-03-10T08:57:06.295Z,35.00
2023-03-10T08:59:36.319Z,35.00
2023-03-10T09:02:05.672Z,35.10
2023-03-10T09:04:36.012Z,35.00
2023-03-10T09:07:05.837Z,34.90
2023-03-10T09:09:36.260Z,34.90
2023-03-10T09:12:09.371Z,35.00
2023-03-10T09:14:38.988Z,35.10
2023-03-10T09:17:10.096Z,35.10
2023-03-10T09:19:41.651Z,35.10
2023-03-10T09:22:11.599Z,35.10
2023-03-10T09:24:40.943Z,35.00
2023-03-10T09:27:12.541Z,34.90
2023-03-10T09:29:43.321Z,35.00
2023-03-10T09:32:14.203Z,34.90
2023-03-10T09:34:43.707Z,34.90
2023-03-10T09:37:13.110Z,34.90
2023-03-10T09:39:42.782Z,35.00
2023-03-10T09:42:41.308Z,34.90
2023-03-10T09:45:37.307Z,34.90
2023-03-10T09:48:21.906Z,35.50
2023-03-10T09:50:54.125Z,34.90
2023-03-10T09:53:49.706Z,34.80
2023-03-10T09:56:22.185Z,34.90
2023-03-10T09:58:58.352Z,34.90
2023-03-10T10:01:33.478Z,34.90
2023-03-10T10:04:09.389Z,34.80
2023-03-10T10:06:46.882Z,34.80
2023-03-10T10:09:22.834Z,34.90
2023-03-10T10:11:51.776Z,34.90
2023-03-10T10:14:31.819Z,35.00
2023-03-10T10:17:13.339Z,35.00
2023-03-10T10:19:43.644Z,35.00
2023-03-10T10:22:22.007Z,34.90
2023-03-10T10:25:08.097Z,34.90
2023-03-10T10:27:42.066Z,34.80
2023-03-10T10:30:32.408Z,35.00
2023-03-10T10:33:03.572Z,35.00
2023-03-10T10:35:34.723Z,34.90
2023-03-10T10:38:07.289Z,34.90
2023-03-10T10:40:47.530Z,34.90
2023-03-10T10:43:19.865Z,35.00
2023-03-10T10:45:56.345Z,35.00
2023-03-10T10:48:39.604Z,35.00
2023-03-10T10:51:24.470Z,35.00
2023-03-10T10:53:55.074Z,35.00
2023-03-10T10:56:28.852Z,35.00
2023-03-10T10:59:09.020Z,35.00
2023-03-10T11:01:52.657Z,35.10
2023-03-10T11:04:23.000Z,35.10
2023-03-10T11:07:09.400Z,35.00
2023-03-10T11:09:38.743Z,35.00
2023-03-10T11:12:20.131Z,35.00
2023-03-10T11:15:07.200Z,35.00
2023-03-10T11:17:44.463Z,35.00
2023-03-10T11:20:25.770Z,35.00
2023-03-10T11:23:02.830Z,34.90
2023-03-10T11:25:38.340Z,34.90
2023-03-10T11:28:37.755Z,34.90
2023-03-10T11:31:17.167Z,34.90
2023-03-10T11:33:54.349Z,34.90
2023-03-10T11:36:49.655Z,34.80
2023-03-10T11:39:36.315Z,34.70
2023-03-10T11:42:18.317Z,34.60
2023-03-10T11:45:01.270Z,34.70
2023-03-10T11:47:44.591Z,34.60
2023-03-10T11:50:27.382Z,34.60
2023-03-10T11:53:02.416Z,34.60
2023-03-10T11:55:34.697Z,34.60
2023-03-10T11:58:08.409Z,34.70
2023-03-10T12:00:43.430Z,34.70
2023-03-10T12:03:20.470Z,34.70
2023-03-10T12:05:55.045Z,34.70
2023-03-10T12:08:27.652Z,34.70
2023-03-10T12:10:58.787Z,34.70
2023-03-10T12:13:32.206Z,34.70
2023-03-10T12:16:07.055Z,34.70
2023-03-10T12:18:36.585Z,34.60
2023-03-10T12:21:17.861Z,34.60
2023-03-10T12:23:49.427Z,34.60
2023-03-10T12:26:58.764Z,34.60
2023-03-10T12:29:46.810Z,34.70
2023-03-10T12:32:43.079Z,34.80
2023-03-10T12:35:45.200Z,34.70
2023-03-10T12:38:46.458Z,34.60
2023-03-10T12:41:37.986Z,34.70
2023-03-10T12:44:32.614Z,34.60
2023-03-10T12:47:16.304Z,34.50
2023-03-10T12:49:52.755Z,34.40
2023-03-10T12:52:30.317Z,34.40
2023-03-10T12:55:17.887Z,34.40
2023-03-10T12:58:07.913Z,34.30
2023-03-10T13:00:48.775Z,34.30
2023-03-10T13:03:30.230Z,34.90
2023-03-10T13:06:10.916Z,34.40
2023-03-10T13:08:46.194Z,34.30
2023-03-10T13:11:39.101Z,34.30
2023-03-10T13:14:14.943Z,34.30
2023-03-10T13:16:58.428Z,34.20
2023-03-10T13:19:30.786Z,34.20
2023-03-10T13:22:01.062Z,34.20
2023-03-10T13:24:33.021Z,34.20
2023-03-10T13:27:09.569Z,34.20
2023-03-10T13:29:39.883Z,34.20
2023-03-10T13:32:20.778Z,34.20
2023-03-10T13:34:51.220Z,34.30
2023-03-10T13:37:23.011Z,34.30
2023-03-10T13:39:53.242Z,34.20
2023-03-10T13:42:40.850Z,34.30
2023-03-10T13:45:25.084Z,34.20
2023-03-10T13:47:58.286Z,34.20
2023-03-10T13:50:28.503Z,34.40
2023-03-10T13:53:00.431Z,34.20
2023-03-10T13:55:30.859Z,34.20
2023-03-10T13:58:07.297Z,34.30
2023-03-10T14:00:42.053Z,34.30
2023-03-10T14:03:12.758Z,34.20
2023-03-10T14:05:47.831Z,34.30
2023-03-10T14:08:22.977Z,34.20
2023-03-10T14:10:56.453Z,34.30
2023-03-10T14:13:47.992Z,34.30
2023-03-10T14:16:18.616Z,34.30
2023-03-10T14:18:49.357Z,34.30
2023-03-10T14:21:36.708Z,34.30
2023-03-10T14:24:11.097Z,34.30
2023-03-10T14:26:42.834Z,34.30
2023-03-10T14:29:19.483Z,34.40
2023-03-10T14:31:55.171Z,34.30
2023-03-10T14:34:28.138Z,34.30
2023-03-10T14:36:59.500Z,34.40
2023-03-10T14:39:33.721Z,34.30
2023-03-10T14:42:04.468Z,34.40
2023-03-10T14:44:38.531Z,35.10
2023-03-10T14:47:11.449Z,34.40
2023-03-10T14:49:42.669Z,34.40
2023-03-10T14:52:22.408Z,34.40
2023-03-10T14:54:54.162Z,34.40
2023-03-10T14:57:28.687Z,34.50
2023-03-10T15:00:02.748Z,34.40
2023-03-10T15:02:34.162Z,34.50
2023-03-10T15:05:04.464Z,34.50
2023-03-10T15:07:34.265Z,34.50
2023-03-10T15:10:11.614Z,34.50
2023-03-10T15:12:49.107Z,34.50
2023-03-10T15:15:26.052Z,34.50
2023-03-10T15:17:56.189Z,34.50
2023-03-10T15:20:28.824Z,34.50
2023-03-10T15:23:00.425Z,34.50
2023-03-10T15:25:32.920Z,34.60
2023-03-10T15:28:04.779Z,34.60
2023-03-10T15:30:39.496Z,34.70
2023-03-10T15:33:11.777Z,34.60
2023-03-10T15:35:42.733Z,34.70
2023-03-10T15:38:17.846Z,34.80
2023-03-10T15:40:50.818Z,34.70
2023-03-10T15:43:25.184Z,34.70
2023-03-10T15:46:01.325Z,34.60
2023-03-10T15:48:31.625Z,34.60
2023-03-10T15:51:03.254Z,34.60
2023-03-10T15:53:33.774Z,34.60
2023-03-10T15:56:09.855Z,34.50
2023-03-10T15:58:40.687Z,34.60
2023-03-10T16:01:14.568Z,34.50
2023-03-10T16:03:45.234Z,34.50
2023-03-10T16:06:22.758Z,34.40
2023-03-10T16:08:54.375Z,34.30
2023-03-10T16:11:25.444Z,34.40
2023-03-10T16:14:01.750Z,34.30
2023-03-10T16:16:34.880Z,34.30
2023-03-10T16:19:05.260Z,34.20
2023-03-10T16:21:37.557Z,34.20
2023-03-10T16:24:08.395Z,34.20
2023-03-10T16:26:44.446Z,34.20
2023-03-10T16:29:14.672Z,34.10
2023-03-10T16:31:47.031Z,34.10
2023-03-10T16:34:18.105Z,34.10
2023-03-10T16:36:49.130Z,34.10
2023-03-10T16:39:21.034Z,34.10
2023-03-10T16:41:52.540Z,34.10
2023-03-10T16:44:23.494Z,34.00
2023-03-10T16:46:58.119Z,34.00
2023-03-10T16:49:28.921Z,34.00
2023-03-10T16:52:00.279Z,33.90
2023-03-10T16:54:33.384Z,33.90
2023-03-10T16:57:08.135Z,33.90
2023-03-10T16:59:43.143Z,33.90
2023-03-10T17:02:17.467Z,33.90
2023-03-10T17:04:46.942Z,33.90
2023-03-10T17:07:17.706Z,33.90
2023-03-10T17:09:47.953Z,33.90
2023-03-10T17:12:21.130Z,33.90
2023-03-10T17:14:51.079Z,33.90
2023-03-10T17:17:25.027Z,33.90
2023-03-10T17:19:54.955Z,33.90
2023-03-10T17:22:25.765Z,34.00
2023-03-10T17:24:56.725Z,34.00
2023-03-10T17:27:27.548Z,34.10
2023-03-10T17:29:58.457Z,34.10
2023-03-10T17:32:31.402Z,34.00
2023-03-10T17:35:03.182Z,34.00
2023-03-10T17:37:36.760Z,34.00
2023-03-10T17:40:17.218Z,34.00
2023-03-10T17:42:50.064Z,34.00
2023-03-10T17:45:23.595Z,34.00
2023-03-10T17:48:00.374Z,34.00
2023-03-10T17:50:35.744Z,34.10
2023-03-10T17:53:08.265Z,34.10
2023-03-10T17:55:39.608Z,34.00
2023-03-10T17:58:15.360Z,34.00
2023-03-10T18:00:49.647Z,34.10
2023-03-10T18:03:23.003Z,34.10
2023-03-10T18:05:56.026Z,34.10
2023-03-10T18:08:27.871Z,34.10
2023-03-10T18:11:02.338Z,34.20
2023-03-10T18:13:34.072Z,34.20
2023-03-10T18:16:04.882Z,34.20
2023-03-10T18:18:38.571Z,34.30
2023-03-10T18:21:11.960Z,34.20
2023-03-10T18:23:44.678Z,34.30
2023-03-10T18:26:19.443Z,34.30
2023-03-10T18:28:50.685Z,34.30
2023-03-10T18:31:25.810Z,34.40
2023-03-10T18:34:04.220Z,34.40
2023-03-10T18:36:37.016Z,34.30
2023-03-10T18:39:08.573Z,34.30
2023-03-10T18:41:42.156Z,34.40
2023-03-10T18:44:14.125Z,34.50
2023-03-10T18:46:45.221Z,34.40
2023-03-10T18:49:19.107Z,34.40
2023-03-10T18:51:53.171Z,34.50
2023-03-10T18:54:24.523Z,34.40
2023-03-10T18:56:55.497Z,34.40
2023-03-10T18:59:31.543Z,34.50
2023-03-10T19:02:03.813Z,34.40
2023-03-10T19:04:44.245Z,34.50
2023-03-10T19:07:20.351Z,34.40
2023-03-10T19:09:57.698Z,34.50
2023-03-10T19:12:29.489Z,34.50
2023-03-10T19:15:06.669Z,34.40
2023-03-10T19:17:39.451Z,34.40
2023-03-10T19:20:17.241Z,34.40
2023-03-10T19:22:57.064Z,34.50
2023-03-10T19:25:30.799Z,34.40
2023-03-10T19:28:02.290Z,34.40
2023-03-10T19:30:34.265Z,34.40
2023-03-10T19:33:06.340Z,34.40
2023-03-10T19:35:40.018Z,34.40
2023-03-10T19:38:12.137Z,34.40
2023-03-10T19:40:50.830Z,34.30
2023-03-10T19:43:21.991Z,34.40
2023-03-10T19:45:53.833Z,34.30
2023-03-10T19:48:25.831Z,34.30
2023-03-10T19:51:00.528Z,34.30
2023-03-10T19:53:33.869Z,34.20
2023-03-10T19:56:11.664Z,34.20
2023-03-10T19:58:42.546Z,34.10
2023-03-10T20:01:16.334Z,34.10
2023-03-10T20:03:46.572Z,34.10
2023-03-10T20:06:19.921Z,34.10
2023-03-10T20:08:50.341Z,34.10
2023-03-10T20:11:21.633Z,34.00
2023-03-10T20:13:56.278Z,34.10
2023-03-10T20:16:29.898Z,34.10
2023-03-10T20:19:02.201Z,34.10
2023-03-10T20:21:35.652Z,34.00
2023-03-10T20:24:07.085Z,34.10
2023-03-10T20:26:38.724Z,34.00
2023-03-10T20:29:09.815Z,34.00
2023-03-10T20:31:40.138Z,33.90
2023-03-10T20:34:21.298Z,34.50
2023-03-10T20:36:55.059Z,33.90
2023-03-10T20:39:25.400Z,33.80
2023-03-10T20:41:57.978Z,33.80
2023-03-10T20:44:28.364Z,33.80
2023-03-10T20:47:01.419Z,33.80
2023-03-10T20:49:32.445Z,33.80
2023-03-10T20:52:04.831Z,33.80
2023-03-10T20:54:36.540Z,33.80
2023-03-10T20:57:09.763Z,33.70
2023-03-10T20:59:41.625Z,33.70
2023-03-10T21:02:17.682Z,33.70
2023-03-10T21:04:50.606Z,33.60
2023-03-10T21:07:26.398Z,33.70
2023-03-10T21:10:01.044Z,33.70
2023-03-10T21:12:33.803Z,33.70
2023-03-10T21:15:05.869Z,33.70
2023-03-10T21:17:44.004Z,33.60
2023-03-10T21:20:20.777Z,33.60
2023-03-10T21:22:53.958Z,33.60
2023-03-10T21:25:27.993Z,33.60
2023-03-10T21:28:02.289Z,33.70
2023-03-10T21:30:36.089Z,33.60
2023-03-10T21:33:07.012Z,33.60
2023-03-10T21:35:41.113Z,33.60
2023-03-10T21:38:14.418Z,33.50
2023-03-10T21:40:45.686Z,33.60
2023-03-10T21:43:18.955Z,33.60
2023-03-10T21:45:51.279Z,33.60
2023-03-10T21:48:22.598Z,33.60
2023-03-10T21:50:56.400Z,33.50
2023-03-10T21:53:30.718Z,33.60
2023-03-10T21:56:01.146Z,33.60
2023-03-10T21:58:31.878Z,33.50
2023-03-10T22:01:06.612Z,33.60
2023-03-10T22:03:40.415Z,33.60
2023-03-10T22:06:11.075Z,33.50
2023-03-10T22:08:43.333Z,33.50
2023-03-10T22:11:17.005Z,33.50
2023-03-10T22:13:51.278Z,33.50
2023-03-10T22:16:23.774Z,33.50
2023-03-10T22:18:57.349Z,33.50
2023-03-10T22:21:29.107Z,33.50
2023-03-10T22:24:04.475Z,33.50
2023-03-10T22:26:37.271Z,33.50
2023-03-10T22:29:18.453Z,33.50
2023-03-10T22:31:49.571Z,33.40
2023-03-10T22:34:20.218Z,33.40
2023-03-10T22:36:52.813Z,33.40
2023-03-10T22:39:27.973Z,33.50
2023-03-10T22:42:02.161Z,33.40
2023-03-10T22:44:38.794Z,33.40
2023-03-10T22:47:10.032Z,33.40
2023-03-10T22:49:46.970Z,33.40
2023-03-10T22:52:17.684Z,33.40
2023-03-10T22:54:55.795Z,33.50
2023-03-10T22:57:28.500Z,33.40
2023-03-10T22:59:59.504Z,33.40
2023-03-10T23:02:29.316Z,33.50
2023-03-10T23:04:59.539Z,33.40
2023-03-10T23:07:29.321Z,33.40
2023-03-10T23:10:02.965Z,33.40
2023-03-10T23:12:40.291Z,33.30
2023-03-10T23:15:22.405Z,33.40
2023-03-10T23:18:02.407Z,33.40
2023-03-10T23:20:37.764Z,33.40
2023-03-10T23:23:09.864Z,33.40
2023-03-10T23:25:43.841Z,33.40
2023-03-10T23:28:15.974Z,33.40
2023-03-10T23:30:49.061Z,33.40
2023-03-10T23:33:22.470Z,33.40
2023-03-10T23:35:54.660Z,33.20
2023-03-10T23:38:27.854Z,33.40
2023-03-10T23:41:01.017Z,33.30
2023-03-10T23:43:33.277Z,33.30
2023-03-10T23:46:08.038Z,33.30
2023-03-10T23:48:39.244Z,33.40
2023-03-10T23:51:21.742Z,33.30
2023-03-10T23:53:51.706Z,33.30
2023-03-10T23:56:27.321Z,33.30
2023-03-10T23:58:59.688Z,33.30
